Time;durP1;ratioP1;P1;durP2;ratioP2;P2;SDS_P1;SDS_P2;PMS_P1;PMS_P2;Temp;Humidity;BMP_temperature;BMP_pressure;BME280_temperature;BME280_humidity;BME280_pressure;Samples;Min_cycle;Max_cycle;Signal;HPM_P1;HPM_P2
2023/04/07 09:03:17;;;;;;;15.45;4.43;;;;;;;;;;5057295;28;20423;-78
2023/04/07 09:05:45;;;;;;;9.82;3.00;;;;;;;;;;5059564;28;20421;-80
2023/04/07 09:08:11;;;;;;;13.60;4.35;;;;;;;;;;5053297;28;20057;-76
2023/04/07 09:10:38;;;;;;;12.75;3.25;;;;;;;;;;5039853;28;20053;-82
2023/04/07 09:16:42;;;;;;;10.93;3.30;;;;;;;;;;5107548;27;20327;-78
2023/04/07 09:19:09;;;;;;;15.40;4.22;;;;;;;;;;5092442;27;20143;-76
2023/04/07 09:21:49;;;;;;;10.98;3.60;;;;;;;;;;5087677;27;20426;-75
2023/04/07 09:24:25;;;;;;;13.77;3.90;;;;;;;;;;5093164;27;20079;-77
2023/04/07 09:27:08;;;;;;;13.05;3.72;;;;;;;;;;5102076;27;20058;-77
2023/04/07 09:29:34;;;;;;;10.02;2.97;;;;;;;;;;5098959;27;20771;-76
2023/04/07 09:32:01;;;;;;;10.38;3.40;;;;;;;;;;5104517;27;20158;-77
2023/04/07 09:34:28;;;;;;;12.05;3.78;;;;;;;;;;5095205;27;20091;-76
2023/04/07 09:36:56;;;;;;;17.58;3.85;;;;;;;;;;5092327;27;20168;-77
2023/04/07 09:39:22;;;;;;;13.00;3.40;;;;;;;;;;5085398;27;20474;-76
2023/04/07 09:41:49;;;;;;;9.30;2.92;;;;;;;;;;5090410;27;20061;-78
2023/04/07 09:44:15;;;;;;;10.18;3.10;;;;;;;;;;5080227;28;20052;-75
2023/04/07 09:46:51;;;;;;;11.07;3.25;;;;;;;;;;5082636;28;20049;-80
2023/04/07 09:49:19;;;;;;;14.73;3.75;;;;;;;;;;5085815;28;20123;-77
2023/04/07 09:52:11;;;;;;;9.98;3.20;;;;;;;;;;5095833;27;20062;-76
2023/04/07 09:54:40;;;;;;;9.05;2.95;;;;;;;;;;5095442;28;20483;-76
2023/04/07 09:57:07;;;;;;;9.55;2.97;;;;;;;;;;5098968;28;20056;-75
2023/04/07 09:59:36;;;;;;;10.23;2.83;;;;;;;;;;5090800;27;20069;-77
2023/04/07 10:02:04;;;;;;;;;;;;;;;;;;5097682;27;20063;-77
2023/04/07 10:04:31;;;;;;;9.02;2.58;;;;;;;;;;5093310;28;44757;-75
2023/04/07 10:06:58;;;;;;;16.42;2.90;;;;;;;;;;5100095;27;20055;-74
2023/04/07 10:09:26;;;;;;;8.10;2.75;;;;;;;;;;5091458;28;21030;-78
2023/04/07 10:11:53;;;;;;;7.22;2.65;;;;;;;;;;5086693;28;20052;-75
2023/04/07 10:14:22;;;;;;;10.55;2.75;;;;;;;;;;5091745;27;20048;-75
2023/04/07 10:16:48;;;;;;;10.90;2.90;;;;;;;;;;5093459;28;20053;-74
2023/04/07 10:19:15;;;;;;;15.00;3.47;;;;;;;;;;5082451;28;20053;-78
2023/04/07 10:21:42;;;;;;;11.70;2.92;;;;;;;;;;5081751;28;20586;-79
2023/04/07 10:24:09;;;;;;;9.63;3.83;;;;;;;;;;5089225;27;20060;-77
2023/04/07 10:26:37;;;;;;;12.77;3.80;;;;;;;;;;5079068;27;20171;-77
2023/04/07 10:29:08;;;;;;;9.43;3.25;;;;;;;;;;5079154;28;20525;-78
2023/04/07 10:31:36;;;;;;;9.82;2.92;;;;;;;;;;5088810;28;20080;-77
2023/04/07 10:34:02;;;;;;;5.03;2.35;;;;;;;;;;5086988;28;20537;-79
2023/04/07 10:36:29;;;;;;;8.50;2.60;;;;;;;;;;5086756;28;20048;-78
2023/04/07 10:39:08;;;;;;;7.68;2.70;;;;;;;;;;5072622;28;20056;-77
2023/04/07 10:41:37;;;;;;;18.38;4.10;;;;;;;;;;5078154;28;20049;-79
2023/04/07 10:44:04;;;;;;;10.25;2.65;;;;;;;;;;5078695;28;20140;-78
2023/04/07 10:46:47;;;;;;;12.48;3.38;;;;;;;;;;5090224;28;20139;-78
2023/04/07 10:49:15;;;;;;;7.90;2.97;;;;;;;;;;5089279;28;20129;-76
2023/04/07 10:52:04;;;;;;;10.82;2.95;;;;;;;;;;5079793;28;20875;-77
2023/04/07 10:54:30;;;;;;;11.02;2.75;;;;;;;;;;5082167;28;20940;-76
2023/04/07 10:57:09;;;;;;;9.75;3.05;;;;;;;;;;5111178;27;20057;-78
2023/04/07 10:59:36;;;;;;;12.32;2.83;;;;;;;;;;5076042;28;20175;-77
2023/04/07 11:02:11;;;;;;;12.80;3.40;;;;;;;;;;5082306;28;20048;-76
2023/04/07 11:04:38;;;;;;;13.70;3.17;;;;;;;;;;5087735;28;20040;-79
2023/04/07 11:07:05;;;;;;;7.50;2.70;;;;;;;;;;5081450;28;20084;-78
2023/04/07 11:09:31;;;;;;;12.65;3.50;;;;;;;;;;5075957;28;20067;-78
2023/04/07 11:11:58;;;;;;;10.93;3.08;;;;;;;;;;5078788;28;20503;-78
2023/04/07 11:14:28;;;;;;;11.10;3.35;;;;;;;;;;5067166;28;20049;-78
2023/04/07 11:16:55;;;;;;;11.05;3.28;;;;;;;;;;5077487;28;20062;-77
2023/04/07 11:19:22;;;;;;;11.63;3.72;;;;;;;;;;5075978;28;20107;-77
2023/04/07 11:21:48;;;;;;;10.77;3.75;;;;;;;;;;5067666;28;20878;-78
2023/04/07 11:24:30;;;;;;;8.30;2.83;;;;;;;;;;5082589;28;20080;-78
2023/04/07 11:26:57;;;;;;;12.10;3.92;;;;;;;;;;5070249;28;20151;-78
2023/04/07 11:29:27;;;;;;;11.40;3.97;;;;;;;;;;5085570;28;20052;-78
2023/04/07 11:31:54;;;;;;;15.13;4.00;;;;;;;;;;5069361;28;20057;-78
2023/04/07 11:34:21;;;;;;;14.20;4.13;;;;;;;;;;5074324;28;20804;-77
2023/04/07 11:36:47;;;;;;;10.15;4.47;;;;;;;;;;5082772;28;20063;-77
2023/04/07 11:39:26;;;;;;;10.38;3.88;;;;;;;;;;5079189;28;20063;-78
2023/04/07 11:41:53;;;;;;;10.90;4.20;;;;;;;;;;5083947;28;20044;-78
2023/04/07 11:44:19;;;;;;;12.40;4.40;;;;;;;;;;5078568;28;20057;-78
2023/04/07 11:46:59;;;;;;;12.63;4.30;;;;;;;;;;5084533;28;20068;-76
2023/04/07 11:49:30;;;;;;;8.65;4.00;;;;;;;;;;5084505;28;20045;-76
2023/04/07 11:51:57;;;;;;;9.25;4.30;;;;;;;;;;5070027;28;20143;-78
2023/04/07 11:54:23;;;;;;;10.73;4.00;;;;;;;;;;5068993;28;20048;-79
2023/04/07 11:56:54;;;;;;;12.13;3.65;;;;;;;;;;5072602;28;20053;-78
2023/04/07 11:59:21;;;;;;;14.27;4.20;;;;;;;;;;5083186;28;20066;-78
2023/04/07 12:01:49;;;;;;;8.07;3.70;;;;;;;;;;5076895;28;20075;-78
2023/04/07 12:04:16;;;;;;;9.98;3.80;;;;;;;;;;5085834;28;20055;-76
2023/04/07 12:06:43;;;;;;;10.85;3.53;;;;;;;;;;5085761;28;20067;-78
2023/04/07 12:09:31;;;;;;;10.43;4.03;;;;;;;;;;5079245;28;20052;-78
2023/04/07 12:11:57;;;;;;;10.32;3.58;;;;;;;;;;5070750;28;20533;-79
2023/04/07 12:14:24;;;;;;;9.95;3.75;;;;;;;;;;5064349;28;20056;-77
2023/04/07 12:16:52;;;;;;;12.70;4.05;;;;;;;;;;5101235;27;20504;-77
2023/04/07 12:19:18;;;;;;;11.48;3.30;;;;;;;;;;5083189;28;20084;-76
2023/04/07 12:21:45;;;;;;;8.05;3.35;;;;;;;;;;5081730;28;20052;-76
2023/04/07 12:24:11;;;;;;;11.13;4.28;;;;;;;;;;5086913;28;20580;-78
2023/04/07 12:26:38;;;;;;;10.90;3.92;;;;;;;;;;5082447;28;20055;-78
2023/04/07 12:29:04;;;;;;;9.70;3.40;;;;;;;;;;5089149;28;20859;-79
2023/04/07 12:31:31;;;;;;;10.48;3.50;;;;;;;;;;5086328;28;20052;-76
2023/04/07 12:33:58;;;;;;;10.18;3.38;;;;;;;;;;5087228;28;20057;-79
2023/04/07 12:36:26;;;;;;;9.55;3.75;;;;;;;;;;5072856;28;20578;-79
2023/04/07 12:38:53;;;;;;;8.18;2.97;;;;;;;;;;5083026;28;20052;-81
2023/04/07 12:41:19;;;;;;;8.10;2.42;;;;;;;;;;5069048;28;20049;-77
2023/04/07 12:43:45;;;;;;;7.30;3.20;;;;;;;;;;5080510;27;20052;-77
2023/04/07 12:46:12;;;;;;;9.43;2.97;;;;;;;;;;5070247;28;20064;-78
2023/04/07 12:48:39;;;;;;;7.40;2.78;;;;;;;;;;5080688;28;20110;-78
2023/04/07 12:51:05;;;;;;;7.95;2.22;;;;;;;;;;5069618;28;21477;-79
2023/04/07 12:53:31;;;;;;;7.13;2.17;;;;;;;;;;5066079;28;20053;-79
2023/04/07 12:55:58;;;;;;;9.68;2.60;;;;;;;;;;5071369;28;20049;-79
2023/04/07 12:58:27;;;;;;;8.98;2.42;;;;;;;;;;5092192;28;20063;-78
2023/04/07 13:00:53;;;;;;;8.30;2.90;;;;;;;;;;5073920;28;20056;-78
2023/04/07 13:03:20;;;;;;;6.13;2.63;;;;;;;;;;5081736;28;20060;-78
2023/04/07 13:05:47;;;;;;;8.90;2.88;;;;;;;;;;5085718;28;20866;-78
2023/04/07 13:08:13;;;;;;;6.18;2.63;;;;;;;;;;5064347;28;20053;-78
2023/04/07 13:10:40;;;;;;;10.15;2.60;;;;;;;;;;5066638;28;20059;-77
2023/04/07 13:13:06;;;;;;;8.57;2.50;;;;;;;;;;5083074;27;20063;-78
2023/04/07 13:15:33;;;;;;;7.80;2.53;;;;;;;;;;5079595;28;20060;-78
2023/04/07 13:17:59;;;;;;;5.55;2.55;;;;;;;;;;5072483;28;20067;-76
2023/04/07 13:20:26;;;;;;;7.68;2.85;;;;;;;;;;5087157;27;21171;-76
2023/04/07 13:22:53;;;;;;;8.68;2.63;;;;;;;;;;5098310;27;20144;-78
2023/04/07 13:25:26;;;;;;;8.55;2.80;;;;;;;;;;5075458;28;20143;-78
2023/04/07 13:27:52;;;;;;;7.90;2.83;;;;;;;;;;5084957;28;20041;-78
2023/04/07 13:30:19;;;;;;;7.72;3.17;;;;;;;;;;5075082;28;20048;-79
2023/04/07 13:32:48;;;;;;;13.98;4.00;;;;;;;;;;5064024;28;20059;-73
2023/04/07 13:35:17;;;;;;;10.43;3.45;;;;;;;;;;5074619;28;20151;-74
2023/04/07 13:37:44;;;;;;;11.30;3.65;;;;;;;;;;5079498;28;20143;-77
2023/04/07 13:40:13;;;;;;;7.78;3.35;;;;;;;;;;5071499;28;20082;-77
2023/04/07 13:42:39;;;;;;;12.45;3.92;;;;;;;;;;5078094;28;20064;-78
2023/04/07 13:45:06;;;;;;;11.68;3.90;;;;;;;;;;5082265;28;20056;-80
2023/04/07 13:47:33;;;;;;;7.00;3.70;;;;;;;;;;5089826;28;20049;-82
2023/04/07 13:50:00;;;;;;;10.85;4.22;;;;;;;;;;5086129;27;20053;-82
2023/04/07 13:52:27;;;;;;;10.32;4.50;;;;;;;;;;5064993;28;20107;-82
2023/04/07 13:54:53;;;;;;;14.95;4.88;;;;;;;;;;5074947;28;20135;-78
2023/04/07 13:57:20;;;;;;;9.07;5.03;;;;;;;;;;5065500;28;20080;-78
2023/04/07 13:59:48;;;;;;;10.55;5.00;;;;;;;;;;5068143;28;20112;-79
2023/04/07 14:02:14;;;;;;;19.58;4.45;;;;;;;;;;5068113;28;20057;-78
2023/04/07 14:04:40;;;;;;;8.75;4.10;;;;;;;;;;5081068;28;20062;-77
2023/04/07 14:07:07;;;;;;;11.65;3.60;;;;;;;;;;5082843;27;20118;-78
2023/04/07 14:09:34;;;;;;;9.65;3.30;;;;;;;;;;5082317;28;20060;-77
2023/04/07 14:12:00;;;;;;;12.85;3.78;;;;;;;;;;5070084;28;20048;-76
2023/04/07 14:14:27;;;;;;;8.15;3.15;;;;;;;;;;5091738;28;20133;-77
2023/04/07 14:16:53;;;;;;;9.73;3.10;;;;;;;;;;5078716;27;20053;-77
2023/04/07 14:19:23;;;;;;;8.15;3.33;;;;;;;;;;5084090;28;20059;-82
2023/04/07 14:21:50;;;;;;;9.27;4.13;;;;;;;;;;5078930;28;20052;-80
2023/04/07 14:24:16;;;;;;;10.57;3.72;;;;;;;;;;5087515;27;20049;-78
2023/04/07 14:26:43;;;;;;;8.10;3.05;;;;;;;;;;5079733;28;20103;-82
2023/04/07 14:29:13;;;;;;;9.80;3.45;;;;;;;;;;5082623;28;20057;-82
2023/04/07 14:31:40;;;;;;;7.90;3.17;;;;;;;;;;5091980;28;20911;-83
2023/04/07 14:34:07;;;;;;;12.73;3.38;;;;;;;;;;5100715;28;20079;-84
2023/04/07 14:36:33;;;;;;;8.82;3.15;;;;;;;;;;5107827;28;20048;-82
2023/04/07 14:39:00;;;;;;;7.53;3.10;;;;;;;;;;5090394;28;20053;-79
2023/04/07 14:41:26;;;;;;;8.70;3.42;;;;;;;;;;5087697;28;20134;-82
2023/04/07 14:43:56;;;;;;;10.23;4.18;;;;;;;;;;5094449;28;20056;-79
2023/04/07 14:46:22;;;;;;;9.43;3.45;;;;;;;;;;5099264;28;20056;-81
2023/04/07 14:48:52;;;;;;;9.48;3.60;;;;;;;;;;5083214;28;20048;-80
2023/04/07 14:51:20;;;;;;;10.25;3.85;;;;;;;;;;5087949;28;20059;-80
2023/04/07 14:53:48;;;;;;;9.82;4.45;;;;;;;;;;5091910;28;20044;-80
2023/04/07 14:56:14;;;;;;;9.85;4.95;;;;;;;;;;5089182;28;20581;-80
2023/04/07 14:58:41;;;;;;;11.27;5.20;;;;;;;;;;5081972;28;20506;-80
2023/04/07 15:01:07;;;;;;;11.65;5.10;;;;;;;;;;5071241;28;20906;-80
2023/04/07 15:03:33;;;;;;;10.32;4.97;;;;;;;;;;5080851;28;20121;-79
2023/04/07 15:06:02;;;;;;;8.77;4.22;;;;;;;;;;5078803;28;20163;-79
2023/04/07 15:08:28;;;;;;;10.23;4.13;;;;;;;;;;5096766;28;20491;-80
2023/04/07 15:10:55;;;;;;;10.13;4.68;;;;;;;;;;5083296;27;20049;-80
2023/04/07 15:13:21;;;;;;;10.60;4.43;;;;;;;;;;5079234;28;20198;-81
2023/04/07 15:15:48;;;;;;;9.57;4.53;;;;;;;;;;5080018;28;20144;-80
2023/04/07 15:18:14;;;;;;;11.73;4.63;;;;;;;;;;5077014;28;20061;-80
2023/04/07 15:20:41;;;;;;;11.27;4.95;;;;;;;;;;5084455;28;20048;-80
2023/04/07 15:23:07;;;;;;;10.50;4.75;;;;;;;;;;5077448;28;20074;-81
2023/04/07 15:25:33;;;;;;;14.77;5.00;;;;;;;;;;5079319;28;20060;-80
2023/04/07 15:28:00;;;;;;;13.55;4.88;;;;;;;;;;5087764;28;20855;-82
2023/04/07 15:30:26;;;;;;;7.95;3.78;;;;;;;;;;5073993;28;20053;-82
2023/04/07 15:32:59;;;;;;;12.75;4.03;;;;;;;;;;5087201;28;20040;-82
2023/04/07 15:35:26;;;;;;;10.07;4.30;;;;;;;;;;5089709;28;20049;-81
2023/04/07 15:37:52;;;;;;;8.38;4.45;;;;;;;;;;5084509;28;20060;-82
2023/04/07 15:40:19;;;;;;;14.73;5.05;;;;;;;;;;5077130;27;20105;-82
2023/04/07 15:42:45;;;;;;;10.82;5.15;;;;;;;;;;5086928;28;20857;-82
2023/04/07 15:45:12;;;;;;;11.82;5.35;;;;;;;;;;5094736;28;20813;-82
2023/04/07 15:47:38;;;;;;;10.15;4.30;;;;;;;;;;5098445;28;20148;-82
2023/04/07 15:50:05;;;;;;;12.45;4.53;;;;;;;;;;5075330;28;20049;-82
2023/04/07 15:52:32;;;;;;;14.35;4.80;;;;;;;;;;5080490;28;20065;-82
2023/04/07 15:54:58;;;;;;;12.35;5.30;;;;;;;;;;5104818;28;20148;-82
2023/04/07 15:57:24;;;;;;;9.85;5.32;;;;;;;;;;5078688;28;20057;-82
2023/04/07 15:59:51;;;;;;;12.02;6.18;;;;;;;;;;5083164;28;20053;-81
2023/04/07 16:02:17;;;;;;;16.13;6.18;;;;;;;;;;5088757;27;20084;-82
2023/04/07 16:04:46;;;;;;;13.48;5.82;;;;;;;;;;5088149;28;20056;-81
2023/04/07 16:07:12;;;;;;;14.25;5.72;;;;;;;;;;5078264;28;20065;-81
2023/04/07 16:09:38;;;;;;;16.33;6.20;;;;;;;;;;5082752;28;20052;-81
2023/04/07 16:12:05;;;;;;;10.27;5.82;;;;;;;;;;5094821;27;20135;-80
2023/04/07 16:14:31;;;;;;;12.10;5.82;;;;;;;;;;5074256;28;20057;-81
2023/04/07 16:16:58;;;;;;;13.82;6.65;;;;;;;;;;5075039;28;20052;-81
2023/04/07 16:19:25;;;;;;;15.18;5.70;;;;;;;;;;5078965;28;20949;-81
2023/04/07 16:21:52;;;;;;;18.08;5.90;;;;;;;;;;5084824;28;20592;-79
2023/04/07 16:24:18;;;;;;;16.40;6.00;;;;;;;;;;5079491;28;20056;-78
2023/04/07 16:26:49;;;;;;;14.57;5.53;;;;;;;;;;5072933;28;20045;-79
2023/04/07 16:29:16;;;;;;;13.70;5.82;;;;;;;;;;5079233;28;20048;-79
2023/04/07 16:31:43;;;;;;;13.95;5.45;;;;;;;;;;5083917;28;20177;-79
2023/04/07 16:34:10;;;;;;;22.13;6.90;;;;;;;;;;5077503;28;20130;-79
2023/04/07 16:36:37;;;;;;;17.30;7.15;;;;;;;;;;5093078;28;20056;-79
2023/04/07 16:39:03;;;;;;;21.98;7.70;;;;;;;;;;5078745;27;20428;-79
2023/04/07 16:41:30;;;;;;;17.20;8.10;;;;;;;;;;5077237;28;20048;-79
2023/04/07 16:43:56;;;;;;;17.42;7.60;;;;;;;;;;5084154;28;20605;-79
2023/04/07 16:46:26;;;;;;;19.38;8.07;;;;;;;;;;5068333;27;20139;-79
2023/04/07 16:48:52;;;;;;;16.15;7.65;;;;;;;;;;5063815;28;20151;-79
2023/04/07 16:51:19;;;;;;;18.40;8.57;;;;;;;;;;5071381;28;20065;-79
2023/04/07 16:53:45;;;;;;;25.13;8.88;;;;;;;;;;5071329;28;20051;-79
2023/04/07 16:56:16;;;;;;;16.40;8.70;;;;;;;;;;5067059;28;20168;-79
2023/04/07 16:58:42;;;;;;;23.17;9.37;;;;;;;;;;5067521;28;20044;-79
2023/04/07 17:01:08;;;;;;;19.27;9.23;;;;;;;;;;5083528;28;20056;-78
2023/04/07 17:03:35;;;;;;;16.35;8.27;;;;;;;;;;5078780;27;20126;-80
2023/04/07 17:06:04;;;;;;;20.38;8.00;;;;;;;;;;5082718;28;20048;-79
2023/04/07 17:08:34;;;;;;;17.23;8.52;;;;;;;;;;5079512;28;20053;-79
2023/04/07 17:11:05;;;;;;;19.65;7.78;;;;;;;;;;5071476;28;20099;-79
2023/04/07 17:13:31;;;;;;;19.52;7.78;;;;;;;;;;5065384;28;20056;-78
2023/04/07 17:15:57;;;;;;;18.20;8.35;;;;;;;;;;5065351;28;20079;-78
2023/04/07 17:18:24;;;;;;;21.13;9.77;;;;;;;;;;5070643;28;20106;-78
2023/04/07 17:20:50;;;;;;;19.15;8.63;;;;;;;;;;5065904;28;20064;-78
2023/04/07 17:23:17;;;;;;;19.25;8.50;;;;;;;;;;5072469;28;20053;-78
2023/04/07 17:25:43;;;;;;;18.48;9.88;;;;;;;;;;5081510;28;20053;-79
2023/04/07 17:28:10;;;;;;;20.77;9.32;;;;;;;;;;5083794;27;20056;-78
2023/04/07 17:30:36;;;;;;;25.73;10.85;;;;;;;;;;5100667;28;20048;-79
2023/04/07 17:33:03;;;;;;;18.75;9.48;;;;;;;;;;5080040;27;20052;-79
2023/04/07 17:35:30;;;;;;;26.13;10.02;;;;;;;;;;5083728;28;20140;-79
2023/04/07 17:38:01;;;;;;;22.00;9.80;;;;;;;;;;5085186;28;20056;-78
2023/04/07 17:40:27;;;;;;;;;;;;;;;;;;5067614;28;20136;-79
2023/04/07 17:42:55;;;;;;;20.27;9.30;;;;;;;;;;5066151;28;46918;-79
2023/04/07 17:45:21;;;;;;;21.10;10.50;;;;;;;;;;5075655;28;20053;-79
2023/04/07 17:47:48;;;;;;;21.75;10.00;;;;;;;;;;5091969;28;20048;-79
2023/04/07 17:50:17;;;;;;;23.75;10.65;;;;;;;;;;5089144;27;20048;-79
2023/04/07 17:52:44;;;;;;;24.52;11.57;;;;;;;;;;5086861;28;20048;-79
2023/04/07 17:55:11;;;;;;;26.65;12.25;;;;;;;;;;5084968;28;20059;-78
2023/04/07 17:57:39;;;;;;;21.98;10.45;;;;;;;;;;5076571;28;20055;-78
2023/04/07 18:00:06;;;;;;;22.10;11.00;;;;;;;;;;5083489;28;20067;-79
2023/04/07 18:02:33;;;;;;;24.17;10.45;;;;;;;;;;5087012;28;20060;-79
2023/04/07 18:05:00;;;;;;;22.05;11.38;;;;;;;;;;5085294;28;20052;-79
2023/04/07 18:07:28;;;;;;;20.35;10.48;;;;;;;;;;5084003;28;20055;-79
2023/04/07 18:09:55;;;;;;;23.98;11.20;;;;;;;;;;5082604;28;20530;-78
2023/04/07 18:12:22;;;;;;;18.58;9.75;;;;;;;;;;5078249;28;20081;-79
2023/04/07 18:14:49;;;;;;;23.10;10.02;;;;;;;;;;5074349;28;20088;-78
2023/04/07 18:17:15;;;;;;;21.50;10.85;;;;;;;;;;5082404;28;20052;-79
2023/04/07 18:19:41;;;;;;;24.08;10.85;;;;;;;;;;5070075;28;20096;-79
2023/04/07 18:22:11;;;;;;;23.73;11.23;;;;;;;;;;5085163;28;20056;-78
2023/04/07 18:24:37;;;;;;;26.40;11.55;;;;;;;;;;5076888;28;20072;-79
2023/04/07 18:27:03;;;;;;;26.30;11.75;;;;;;;;;;5070762;28;20060;-79
2023/04/07 18:29:30;;;;;;;31.80;12.82;;;;;;;;;;5104490;27;20052;-79
2023/04/07 18:31:56;;;;;;;36.47;13.25;;;;;;;;;;5067767;27;21295;-80
2023/04/07 18:34:24;;;;;;;31.85;13.60;;;;;;;;;;5077420;28;20092;-80
2023/04/07 18:36:52;;;;;;;29.38;12.65;;;;;;;;;;5088217;28;20052;-80
2023/04/07 18:39:19;;;;;;;32.55;14.35;;;;;;;;;;5092257;28;20053;-80
2023/04/07 18:41:47;;;;;;;32.45;14.90;;;;;;;;;;5086026;28;20052;-79
2023/04/07 18:44:13;;;;;;;30.55;12.65;;;;;;;;;;5068347;28;20626;-77
2023/04/07 18:46:40;;;;;;;27.25;13.55;;;;;;;;;;5075963;28;20948;-79
2023/04/07 18:49:06;;;;;;;30.05;14.15;;;;;;;;;;5088016;28;20538;-80
2023/04/07 18:51:33;;;;;;;28.13;14.65;;;;;;;;;;5080328;28;20078;-79
2023/04/07 18:53:59;;;;;;;26.23;12.73;;;;;;;;;;5084175;28;20059;-79
2023/04/07 18:56:27;;;;;;;31.63;14.60;;;;;;;;;;5081034;27;20071;-80
2023/04/07 18:58:53;;;;;;;30.58;15.27;;;;;;;;;;5085477;28;20055;-79
2023/04/07 19:01:20;;;;;;;30.75;14.25;;;;;;;;;;5091338;27;20052;-80
2023/04/07 19:03:47;;;;;;;29.83;15.05;;;;;;;;;;5099080;27;20057;-79
2023/04/07 19:06:14;;;;;;;32.60;14.82;;;;;;;;;;5080716;28;20063;-79
2023/04/07 19:08:41;;;;;;;32.38;15.02;;;;;;;;;;5086777;28;20080;-79
2023/04/07 19:11:08;;;;;;;39.42;16.40;;;;;;;;;;5072903;28;20057;-79
2023/04/07 19:13:35;;;;;;;34.80;16.35;;;;;;;;;;5071532;28;20057;-79
2023/04/07 19:16:02;;;;;;;34.65;16.05;;;;;;;;;;5084029;28;20052;-80
2023/04/07 19:18:30;;;;;;;37.95;16.35;;;;;;;;;;5068363;28;20084;-80
2023/04/07 19:20:56;;;;;;;37.95;17.50;;;;;;;;;;5072237;28;21132;-79
2023/04/07 19:23:23;;;;;;;38.20;17.80;;;;;;;;;;5079007;28;20136;-79
2023/04/07 19:25:49;;;;;;;33.63;16.52;;;;;;;;;;5083776;28;20052;-79
2023/04/07 19:28:16;;;;;;;41.38;16.10;;;;;;;;;;5075072;28;20164;-80
2023/04/07 19:30:42;;;;;;;38.55;16.42;;;;;;;;;;5065661;28;20056;-79
2023/04/07 19:33:08;;;;;;;35.88;16.63;;;;;;;;;;5065267;28;20057;-79
2023/04/07 19:35:37;;;;;;;37.92;16.60;;;;;;;;;;5068268;28;20052;-79
2023/04/07 19:38:04;;;;;;;35.13;16.15;;;;;;;;;;5066797;28;20427;-79
2023/04/07 19:40:32;;;;;;;38.53;16.02;;;;;;;;;;5078340;28;20843;-79
2023/04/07 19:42:58;;;;;;;38.90;16.33;;;;;;;;;;5084796;28;20146;-79
2023/04/07 19:45:25;;;;;;;37.55;15.63;;;;;;;;;;5084212;28;20060;-80
2023/04/07 19:47:52;;;;;;;33.30;14.25;;;;;;;;;;5075543;28;20049;-79
2023/04/07 19:50:18;;;;;;;36.33;15.82;;;;;;;;;;5070055;28;20041;-79
2023/04/07 19:52:46;;;;;;;36.10;16.42;;;;;;;;;;5083712;28;20491;-79
2023/04/07 19:55:12;;;;;;;32.90;15.35;;;;;;;;;;5068674;28;20057;-79
2023/04/07 19:57:39;;;;;;;34.08;15.40;;;;;;;;;;5083502;28;20048;-80
2023/04/07 20:00:07;;;;;;;34.83;15.40;;;;;;;;;;5078514;28;20116;-79
2023/04/07 20:02:34;;;;;;;34.47;16.02;;;;;;;;;;5072970;28;20209;-79
2023/04/07 20:05:02;;;;;;;32.20;15.50;;;;;;;;;;5075140;28;20056;-79
2023/04/07 20:07:31;;;;;;;35.53;16.67;;;;;;;;;;5076798;28;20959;-79
2023/04/07 20:09:58;;;;;;;33.53;16.00;;;;;;;;;;5074990;28;20049;-79
2023/04/07 20:12:25;;;;;;;32.08;15.38;;;;;;;;;;5071713;28;20057;-79
2023/04/07 20:14:51;;;;;;;32.90;15.15;;;;;;;;;;5062487;28;20486;-79
2023/04/07 20:17:18;;;;;;;36.33;15.13;;;;;;;;;;5065576;28;20140;-80
2023/04/07 20:19:45;;;;;;;29.00;14.55;;;;;;;;;;5069814;28;20142;-80
2023/04/07 20:22:12;;;;;;;35.47;16.00;;;;;;;;;;5075424;28;20071;-79
2023/04/07 20:24:38;;;;;;;33.25;15.43;;;;;;;;;;5065468;27;20049;-79
2023/04/07 20:27:05;;;;;;;41.95;16.48;;;;;;;;;;5074801;28;20140;-79
2023/04/07 20:29:31;;;;;;;36.17;16.52;;;;;;;;;;5076067;27;20459;-79
2023/04/07 20:31:57;;;;;;;37.22;16.73;;;;;;;;;;5083864;28;20954;-80
2023/04/07 20:34:24;;;;;;;42.10;18.33;;;;;;;;;;5067306;27;20367;-79
2023/04/07 20:36:50;;;;;;;40.08;18.00;;;;;;;;;;5064088;28;20519;-79
2023/04/07 20:39:16;;;;;;;39.95;17.42;;;;;;;;;;5075945;28;20585;-79
2023/04/07 20:41:44;;;;;;;42.35;16.80;;;;;;;;;;5080852;28;20048;-79
2023/04/07 20:44:11;;;;;;;35.40;15.82;;;;;;;;;;5066263;27;20057;-79
2023/04/07 20:46:37;;;;;;;38.60;16.85;;;;;;;;;;5063743;28;20057;-78
2023/04/07 20:49:06;;;;;;;38.70;16.38;;;;;;;;;;5065449;28;20056;-78
2023/04/07 20:51:35;;;;;;;39.70;16.02;;;;;;;;;;5082584;28;20080;-78
2023/04/07 20:54:02;;;;;;;35.83;17.10;;;;;;;;;;5082807;28;20056;-78
2023/04/07 20:56:29;;;;;;;39.58;16.80;;;;;;;;;;5079677;28;20182;-79
2023/04/07 20:58:55;;;;;;;38.60;16.27;;;;;;;;;;5075717;28;20053;-78
2023/04/07 21:01:21;;;;;;;34.88;16.13;;;;;;;;;;5080068;28;20052;-78
2023/04/07 21:03:48;;;;;;;38.88;16.20;;;;;;;;;;5081805;28;20052;-78
2023/04/07 21:06:15;;;;;;;42.15;17.27;;;;;;;;;;5089308;28;20059;-78
2023/04/07 21:08:41;;;;;;;33.20;15.88;;;;;;;;;;5081572;28;20107;-78
2023/04/07 21:11:07;;;;;;;34.42;15.73;;;;;;;;;;5063350;28;20213;-78
2023/04/07 21:13:34;;;;;;;40.85;17.45;;;;;;;;;;5066370;28;20127;-79
2023/04/07 21:16:03;;;;;;;41.47;16.15;;;;;;;;;;5086108;28;20044;-78
2023/04/07 21:18:30;;;;;;;35.70;15.32;;;;;;;;;;5084376;28;20381;-78
2023/04/07 21:20:58;;;;;;;34.92;17.70;;;;;;;;;;5066917;28;20482;-78
2023/04/07 21:23:24;;;;;;;42.05;18.05;;;;;;;;;;5077010;28;20115;-79
2023/04/07 21:25:51;;;;;;;41.60;17.05;;;;;;;;;;5080090;28;20052;-79
2023/04/07 21:28:17;;;;;;;42.83;17.98;;;;;;;;;;5083114;28;20053;-79
2023/04/07 21:30:43;;;;;;;41.85;18.25;;;;;;;;;;5068555;28;20447;-78
2023/04/07 21:33:11;;;;;;;45.15;18.85;;;;;;;;;;5063137;28;20063;-78
2023/04/07 21:35:37;;;;;;;44.42;18.05;;;;;;;;;;5083197;28;20163;-79
2023/04/07 21:38:04;;;;;;;39.38;17.27;;;;;;;;;;5077334;28;20161;-78
2023/04/07 21:40:30;;;;;;;40.00;17.65;;;;;;;;;;5081585;28;20532;-78
2023/04/07 21:42:56;;;;;;;37.92;17.23;;;;;;;;;;5082898;28;20051;-78
2023/04/07 21:45:23;;;;;;;44.33;17.60;;;;;;;;;;5081250;28;20060;-79
2023/04/07 21:47:49;;;;;;;41.78;19.20;;;;;;;;;;5067353;28;20056;-78
2023/04/07 21:50:16;;;;;;;41.60;17.60;;;;;;;;;;5062067;28;20136;-80
2023/04/07 21:52:42;;;;;;;47.28;18.08;;;;;;;;;;5068887;28;20053;-79
2023/04/07 21:55:09;;;;;;;38.13;18.33;;;;;;;;;;5079553;28;20063;-79
2023/04/07 21:57:36;;;;;;;38.70;18.05;;;;;;;;;;5083423;28;20056;-78
2023/04/07 22:00:03;;;;;;;39.42;17.15;;;;;;;;;;5082276;28;20235;-79
2023/04/07 22:02:29;;;;;;;40.28;16.95;;;;;;;;;;5066193;28;20049;-80
2023/04/07 22:04:56;;;;;;;43.40;18.23;;;;;;;;;;5066330;28;20061;-79
2023/04/07 22:07:23;;;;;;;39.72;17.98;;;;;;;;;;5063188;28;20057;-79
2023/04/07 22:09:49;;;;;;;40.33;17.77;;;;;;;;;;5062675;28;20056;-80
2023/04/07 22:12:15;;;;;;;44.10;19.08;;;;;;;;;;5086243;28;20059;-80
2023/04/07 22:14:44;;;;;;;42.80;18.45;;;;;;;;;;5081763;28;20135;-79
2023/04/07 22:17:10;;;;;;;42.47;18.15;;;;;;;;;;5083547;28;20048;-79
2023/04/07 22:19:36;;;;;;;48.70;18.88;;;;;;;;;;5087583;28;20127;-79
2023/04/07 22:22:03;;;;;;;46.75;19.20;;;;;;;;;;5101320;27;20155;-79
2023/04/07 22:24:29;;;;;;;48.97;18.73;;;;;;;;;;5106931;27;20510;-79
2023/04/07 22:26:57;;;;;;;51.03;19.42;;;;;;;;;;5093923;27;20156;-79
2023/04/07 22:29:23;;;;;;;44.38;18.52;;;;;;;;;;5084839;28;20062;-79
2023/04/07 22:31:49;;;;;;;42.42;18.15;;;;;;;;;;5099472;28;20095;-80
2023/04/07 22:34:16;;;;;;;42.25;18.17;;;;;;;;;;5090704;28;20835;-79
2023/04/07 22:36:42;;;;;;;46.65;18.45;;;;;;;;;;5083502;28;20439;-79
2023/04/07 22:39:09;;;;;;;40.00;17.13;;;;;;;;;;5097251;27;20064;-80
2023/04/07 22:41:36;;;;;;;41.92;18.40;;;;;;;;;;5083804;27;20144;-79
2023/04/07 22:44:02;;;;;;;42.15;16.98;;;;;;;;;;5082556;28;20856;-80
2023/04/07 22:46:29;;;;;;;38.83;16.30;;;;;;;;;;5081514;28;20044;-79
2023/04/07 22:48:55;;;;;;;39.58;16.63;;;;;;;;;;5087727;28;20055;-81
2023/04/07 22:51:22;;;;;;;45.50;17.90;;;;;;;;;;5085884;28;20052;-80
2023/04/07 22:53:48;;;;;;;36.72;16.08;;;;;;;;;;5085258;28;20057;-79
2023/04/07 22:56:15;;;;;;;41.25;15.52;;;;;;;;;;5066814;28;20045;-79
2023/04/07 22:58:41;;;;;;;35.85;15.23;;;;;;;;;;5065651;28;20192;-80
2023/04/07 23:01:07;;;;;;;38.83;16.05;;;;;;;;;;5071205;28;20071;-80
2023/04/07 23:03:34;;;;;;;37.10;15.23;;;;;;;;;;5066586;28;20064;-80
2023/04/07 23:06:01;;;;;;;39.45;16.40;;;;;;;;;;5069910;28;20057;-79
2023/04/07 23:08:28;;;;;;;40.50;17.02;;;;;;;;;;5077109;28;20595;-79
2023/04/07 23:10:54;;;;;;;39.85;15.90;;;;;;;;;;5068213;28;20569;-80
2023/04/07 23:13:20;;;;;;;38.20;15.68;;;;;;;;;;5087197;28;20061;-80
2023/04/07 23:15:47;;;;;;;35.55;14.80;;;;;;;;;;5086273;28;20080;-80
2023/04/07 23:18:13;;;;;;;31.15;13.68;;;;;;;;;;5086067;28;20040;-80
2023/04/07 23:20:40;;;;;;;31.60;14.50;;;;;;;;;;5092317;28;20040;-80
2023/04/07 23:23:06;;;;;;;30.50;13.80;;;;;;;;;;5108592;27;20040;-79
2023/04/07 23:25:33;;;;;;;36.25;15.10;;;;;;;;;;5106676;27;20722;-79
2023/04/07 23:28:00;;;;;;;32.38;13.57;;;;;;;;;;5075585;27;20813;-79
2023/04/07 23:30:26;;;;;;;37.88;14.57;;;;;;;;;;5087910;28;20486;-79
2023/04/07 23:32:53;;;;;;;34.92;14.38;;;;;;;;;;5076719;28;20048;-79
2023/04/07 23:35:19;;;;;;;34.92;14.40;;;;;;;;;;5087579;28;20078;-80